createdAt,value
2018-07-27T00:02:18.483Z,2.70
2018-07-27T00:04:46.785Z,3.07
2018-07-27T00:07:15.119Z,3.10
2018-07-27T00:09:43.405Z,2.90
2018-07-27T00:12:11.703Z,3.47
2018-07-27T00:14:40.026Z,3.00
2018-07-27T00:17:08.329Z,2.90
2018-07-27T00:19:36.629Z,2.93
2018-07-27T00:22:04.953Z,2.90
2018-07-27T00:24:33.323Z,3.10
2018-07-27T00:27:01.359Z,2.90
2018-07-27T00:29:29.738Z,2.73
2018-07-27T00:31:58.053Z,2.80
2018-07-27T00:34:26.349Z,2.80
2018-07-27T00:36:54.666Z,3.07
2018-07-27T00:39:22.955Z,2.77
2018-07-27T00:41:51.253Z,2.70
2018-07-27T00:44:19.552Z,3.00
2018-07-27T00:46:47.840Z,2.80
2018-07-27T00:49:16.205Z,2.80
2018-07-27T00:51:44.472Z,2.90
2018-07-27T00:54:12.764Z,2.70
2018-07-27T00:56:40.780Z,2.77
2018-07-27T00:59:09.123Z,2.57
2018-07-27T01:01:37.439Z,2.80
2018-07-27T01:04:05.761Z,2.70
2018-07-27T01:06:34.072Z,2.77
2018-07-27T01:09:02.373Z,2.50
2018-07-27T01:11:30.663Z,2.60
2018-07-27T01:13:58.945Z,2.93
2018-07-27T01:16:27.256Z,2.50
2018-07-27T01:18:55.541Z,2.70
2018-07-27T01:21:23.563Z,2.63
2018-07-27T01:23:51.851Z,2.80
2018-07-27T01:26:20.141Z,2.60
2018-07-27T01:28:48.448Z,2.97
2018-07-27T01:31:16.737Z,2.97
2018-07-27T01:33:45.127Z,2.77
2018-07-27T01:36:13.432Z,2.87
2018-07-27T01:38:41.724Z,2.90
2018-07-27T01:41:10.018Z,2.87
2018-07-27T01:43:38.308Z,2.93
2018-07-27T01:46:06.583Z,2.83
2018-07-27T01:48:34.595Z,3.37
2018-07-27T01:51:02.994Z,2.60
2018-07-27T01:53:31.237Z,3.13
2018-07-27T01:55:59.511Z,3.00
2018-07-27T01:58:27.787Z,3.20
2018-07-27T02:00:56.079Z,3.40
2018-07-27T02:03:24.537Z,3.07
2018-07-27T02:05:52.848Z,3.10
2018-07-27T02:08:21.133Z,3.20
2018-07-27T02:10:49.411Z,2.80
2018-07-27T02:13:17.678Z,3.03
2018-07-27T02:15:45.955Z,3.10
2018-07-27T02:18:14.251Z,2.80
2018-07-27T02:20:42.255Z,3.00
2018-07-27T02:23:10.560Z,3.13
2018-07-27T02:25:38.937Z,3.20
2018-07-27T02:28:07.271Z,3.27
2018-07-27T02:30:35.556Z,3.27
2018-07-27T02:33:03.849Z,3.30
2018-07-27T02:35:31.871Z,3.63
2018-07-27T02:38:00.142Z,2.90
2018-07-27T02:40:28.428Z,3.20
2018-07-27T02:42:56.706Z,3.40
2018-07-27T02:45:24.987Z,3.10
2018-07-27T02:47:53.285Z,3.20
2018-07-27T02:50:21.599Z,3.13
2018-07-27T02:52:49.878Z,3.17
2018-07-27T02:55:18.164Z,3.07
2018-07-27T02:57:46.512Z,2.90
2018-07-27T03:00:14.820Z,3.60
2018-07-27T03:02:43.110Z,3.37
2018-07-27T03:05:11.413Z,3.10
2018-07-27T03:07:39.439Z,3.40
2018-07-27T03:10:07.806Z,3.23
2018-07-27T03:12:36.118Z,3.17
2018-07-27T03:15:04.592Z,3.40
2018-07-27T03:17:32.922Z,2.90
2018-07-27T03:20:01.184Z,3.27
2018-07-27T03:22:29.452Z,3.00
2018-07-27T03:24:57.456Z,3.03
2018-07-27T03:27:25.732Z,3.00
2018-07-27T03:29:53.997Z,2.97
2018-07-27T03:32:22.270Z,3.20
2018-07-27T03:34:50.528Z,2.70
2018-07-27T03:37:18.798Z,2.70
2018-07-27T03:39:47.067Z,3.00
2018-07-27T03:42:15.345Z,3.10
2018-07-27T03:44:43.612Z,3.10
2018-07-27T03:47:11.886Z,2.83
2018-07-27T03:49:40.236Z,3.10
2018-07-27T03:52:08.497Z,2.87
2018-07-27T03:54:36.800Z,2.80
2018-07-27T03:57:05.173Z,2.73
2018-07-27T03:59:33.415Z,3.17
2018-07-27T04:02:01.724Z,2.80
2018-07-27T04:04:29.996Z,2.67
2018-07-27T04:06:58.288Z,3.10
2018-07-27T04:09:26.545Z,3.00
2018-07-27T04:11:54.825Z,2.90
2018-07-27T04:14:23.108Z,2.97
2018-07-27T04:16:51.111Z,3.30
2018-07-27T04:19:19.396Z,2.90
2018-07-27T04:21:47.683Z,3.33
2018-07-27T04:24:15.943Z,2.83
2018-07-27T04:26:43.931Z,2.67
2018-07-27T04:29:12.203Z,2.70
2018-07-27T04:31:40.509Z,2.83
2018-07-27T04:34:08.781Z,2.83
2018-07-27T04:36:37.059Z,2.90
2018-07-27T04:39:08.190Z,2.97
2018-07-27T04:41:36.499Z,3.13
2018-07-27T04:44:04.776Z,3.00
2018-07-27T04:46:33.044Z,3.13
2018-07-27T04:49:01.307Z,3.20
2018-07-27T04:51:29.572Z,3.00
2018-07-27T04:53:57.831Z,3.17
2018-07-27T04:56:26.150Z,2.93
2018-07-27T04:58:54.428Z,3.10
2018-07-27T05:01:22.700Z,3.17
2018-07-27T05:03:51.001Z,3.20
2018-07-27T05:06:19.285Z,3.20
2018-07-27T05:08:52.901Z,3.03
2018-07-27T05:11:20.903Z,3.00
2018-07-27T05:13:49.168Z,2.97
2018-07-27T05:16:17.484Z,2.80
2018-07-27T05:18:45.495Z,2.90
2018-07-27T05:21:13.762Z,3.00
2018-07-27T05:23:42.016Z,2.93
2018-07-27T05:26:10.285Z,3.30
2018-07-27T05:28:38.537Z,3.23
2018-07-27T05:31:06.564Z,3.10
2018-07-27T05:33:34.879Z,2.93
2018-07-27T05:36:03.165Z,2.70
2018-07-27T05:38:31.447Z,2.80
2018-07-27T05:40:59.837Z,3.00
2018-07-27T05:43:28.122Z,3.30
2018-07-27T05:45:56.399Z,3.00
2018-07-27T05:48:25.087Z,3.30
2018-07-27T05:50:53.401Z,3.20
2018-07-27T05:53:21.701Z,3.30
2018-07-27T05:55:49.977Z,3.23
2018-07-27T05:58:18.271Z,3.20
2018-07-27T06:00:46.565Z,3.30
2018-07-27T06:03:14.618Z,3.23
2018-07-27T06:05:42.893Z,3.23
2018-07-27T06:08:11.203Z,3.40
2018-07-27T06:10:39.475Z,3.30
2018-07-27T06:13:07.893Z,3.20
2018-07-27T06:15:36.225Z,3.17
2018-07-27T06:18:04.598Z,3.30
2018-07-27T06:20:32.818Z,3.60
2018-07-27T06:23:01.153Z,3.40
2018-07-27T06:25:29.468Z,3.27
2018-07-27T06:27:57.749Z,3.43
2018-07-27T06:30:26.054Z,3.37
2018-07-27T06:32:54.336Z,3.40
2018-07-27T06:35:22.644Z,3.50
2018-07-27T06:37:50.898Z,3.47
2018-07-27T06:40:19.258Z,3.50
2018-07-27T06:42:47.523Z,3.40
2018-07-27T06:45:15.837Z,3.60
2018-07-27T06:47:44.063Z,3.63
2018-07-27T06:50:12.350Z,3.73
2018-07-27T06:52:40.624Z,3.50
2018-07-27T06:55:08.935Z,3.57
2018-07-27T06:57:37.199Z,3.70
2018-07-27T07:00:06.097Z,3.43
2018-07-27T07:02:34.398Z,3.90
2018-07-27T07:05:02.463Z,3.63
2018-07-27T07:07:30.764Z,3.63
2018-07-27T07:09:59.032Z,3.43
2018-07-27T07:12:27.416Z,3.70
2018-07-27T07:14:55.686Z,3.37
2018-07-27T07:17:23.973Z,3.80
2018-07-27T07:19:52.331Z,3.10
2018-07-27T07:22:20.633Z,3.63
2018-07-27T07:24:48.932Z,3.90
2018-07-27T07:27:16.961Z,3.97
2018-07-27T07:29:48.215Z,3.70
2018-07-27T07:32:16.485Z,3.73
2018-07-27T07:34:44.767Z,3.93
2018-07-27T07:37:13.030Z,3.70
2018-07-27T07:39:41.292Z,3.87
2018-07-27T07:42:09.310Z,4.00
2018-07-27T07:44:37.586Z,4.10
2018-07-27T07:47:05.860Z,3.80
2018-07-27T07:49:34.153Z,3.83
2018-07-27T07:52:02.428Z,3.70
2018-07-27T07:54:30.708Z,3.80
2018-07-27T07:56:58.988Z,4.00
2018-07-27T07:59:27.294Z,4.50
2018-07-27T08:01:55.574Z,4.07
2018-07-27T08:04:23.906Z,4.27
2018-07-27T08:06:52.212Z,3.73
2018-07-27T08:09:20.503Z,4.07
2018-07-27T08:11:51.070Z,3.90
2018-07-27T08:14:19.370Z,3.87
2018-07-27T08:16:47.634Z,3.90
2018-07-27T08:19:15.940Z,3.80
2018-07-27T08:21:44.213Z,4.00
2018-07-27T08:24:12.480Z,4.37
2018-07-27T08:26:44.792Z,3.90
2018-07-27T08:29:14.280Z,3.73
2018-07-27T08:31:43.526Z,4.00
2018-07-27T08:34:12.477Z,3.87
2018-07-27T08:36:40.757Z,4.37
2018-07-27T08:39:11.173Z,3.67
2018-07-27T08:41:40.009Z,4.33
2018-07-27T08:44:09.296Z,4.47
2018-07-27T08:46:37.777Z,4.50
2018-07-27T08:49:06.064Z,4.70
2018-07-27T08:51:34.552Z,4.57
2018-07-27T08:54:02.828Z,4.50
2018-07-27T08:56:31.113Z,4.67
2018-07-27T08:58:59.511Z,4.40
2018-07-27T09:01:27.808Z,4.30
2018-07-27T09:03:56.142Z,4.33
2018-07-27T09:06:24.397Z,4.20
2018-07-27T09:08:53.005Z,4.50
2018-07-27T09:11:21.625Z,4.07
2018-07-27T09:13:50.422Z,4.23
2018-07-27T09:16:18.946Z,4.17
2018-07-27T09:18:47.317Z,3.90
2018-07-27T09:21:15.659Z,3.93
2018-07-27T09:23:43.923Z,4.73
2018-07-27T09:26:12.288Z,4.13
2018-07-27T09:28:40.561Z,3.90
2018-07-27T09:31:08.845Z,4.20
2018-07-27T09:33:37.124Z,4.50
2018-07-27T09:36:05.501Z,4.10
2018-07-27T09:38:33.774Z,3.90
2018-07-27T09:41:02.065Z,4.20
2018-07-27T09:43:30.323Z,4.30
2018-07-27T09:45:58.610Z,4.47
2018-07-27T09:48:26.873Z,4.07
2018-07-27T09:50:55.151Z,4.23
2018-07-27T09:53:23.415Z,4.10
2018-07-27T09:55:51.807Z,4.30
2018-07-27T09:58:20.077Z,4.80
2018-07-27T10:00:53.638Z,4.30
2018-07-27T10:03:21.904Z,4.77
2018-07-27T10:05:50.254Z,4.27
2018-07-27T10:08:18.481Z,4.00
2018-07-27T10:10:46.745Z,4.13
2018-07-27T10:13:15.029Z,5.20
2018-07-27T10:15:43.296Z,4.57
2018-07-27T10:18:11.616Z,4.20
2018-07-27T10:20:39.987Z,3.70
2018-07-27T10:23:08.290Z,4.13
2018-07-27T10:25:36.591Z,3.70
2018-07-27T10:28:04.872Z,4.10
2018-07-27T10:30:33.144Z,3.90
2018-07-27T10:33:01.445Z,4.37
2018-07-27T10:35:29.737Z,4.10
2018-07-27T10:37:58.011Z,3.90
2018-07-27T10:40:26.285Z,4.20
2018-07-27T10:42:54.587Z,4.07
2018-07-27T10:45:22.854Z,4.87
2018-07-27T10:47:51.830Z,5.00
2018-07-27T10:50:19.895Z,4.87
2018-07-27T10:52:48.558Z,5.50
2018-07-27T10:55:16.912Z,6.07
2018-07-27T10:57:45.217Z,6.17
2018-07-27T11:00:14.961Z,5.63
2018-07-27T11:02:43.243Z,5.50
2018-07-27T11:05:12.445Z,5.37
2018-07-27T11:07:40.728Z,5.60
2018-07-27T11:10:09.893Z,5.37
2018-07-27T11:12:38.186Z,5.77
2018-07-27T11:15:07.519Z,5.43
2018-07-27T11:17:35.911Z,6.23
2018-07-27T11:20:04.577Z,5.27
2018-07-27T11:22:32.915Z,4.03
2018-07-27T11:25:01.216Z,4.70
2018-07-27T11:27:29.484Z,5.67
2018-07-27T11:29:57.792Z,4.90
2018-07-27T11:32:26.069Z,4.83
2018-07-27T11:34:54.464Z,4.77
2018-07-27T11:37:23.204Z,4.93
2018-07-27T11:39:51.415Z,4.17
2018-07-27T11:42:19.724Z,4.90
2018-07-27T11:44:47.960Z,4.17
2018-07-27T11:47:16.244Z,3.40
2018-07-27T11:49:44.535Z,4.60
2018-07-27T11:52:12.820Z,4.53
2018-07-27T11:54:41.225Z,4.67
2018-07-27T11:57:09.511Z,4.70
2018-07-27T11:59:37.802Z,4.67
2018-07-27T12:02:06.081Z,4.67
2018-07-27T12:04:34.388Z,4.40
2018-07-27T12:07:02.700Z,5.00
2018-07-27T12:09:30.981Z,4.47
2018-07-27T12:11:59.296Z,4.27
2018-07-27T12:14:27.735Z,4.67
2018-07-27T12:16:55.904Z,4.63
2018-07-27T12:19:24.216Z,4.60
2018-07-27T12:21:52.524Z,3.77
2018-07-27T12:24:20.796Z,4.70
2018-07-27T12:26:49.061Z,4.20
2018-07-27T12:29:17.394Z,4.40
2018-07-27T12:31:45.685Z,4.30
2018-07-27T12:34:13.966Z,4.50
2018-07-27T12:36:42.232Z,4.40
2018-07-27T12:39:11.608Z,4.20
2018-07-27T12:41:41.092Z,4.20
2018-07-27T12:44:09.797Z,4.13
2018-07-27T12:46:38.492Z,4.07
2018-07-27T12:49:06.511Z,3.93
2018-07-27T12:51:34.817Z,3.53
2018-07-27T12:54:03.094Z,4.23
2018-07-27T12:56:31.355Z,4.00
2018-07-27T12:58:59.643Z,4.07
2018-07-27T13:01:27.916Z,3.47
2018-07-27T13:03:56.281Z,4.13
2018-07-27T13:06:24.579Z,3.80
2018-07-27T13:08:52.839Z,4.00
2018-07-27T13:11:21.138Z,4.37
2018-07-27T13:13:49.416Z,4.00
2018-07-27T13:16:17.704Z,3.83
2018-07-27T13:18:46.319Z,4.10
2018-07-27T13:21:14.619Z,3.73
2018-07-27T13:23:55.201Z,4.03
2018-07-27T13:28:51.766Z,3.87
2018-07-27T13:31:29.027Z,4.03
2018-07-27T13:34:12.216Z,3.53
2018-07-27T13:36:40.499Z,3.63
2018-07-27T13:39:08.886Z,3.27
2018-07-27T13:41:37.163Z,3.90
2018-07-27T13:44:05.440Z,3.67
2018-07-27T13:46:33.726Z,3.63
2018-07-27T13:49:02.009Z,4.10
2018-07-27T13:51:30.312Z,3.70
2018-07-27T13:53:58.572Z,4.00
2018-07-27T13:56:26.854Z,3.87
2018-07-27T13:58:55.107Z,3.80
2018-07-27T14:01:23.446Z,3.67
2018-07-27T14:03:51.741Z,3.73
2018-07-27T14:06:20.038Z,3.83
2018-07-27T14:08:48.348Z,3.70
2018-07-27T14:11:16.612Z,3.77
2018-07-27T14:13:44.913Z,3.77
2018-07-27T14:16:13.164Z,3.97
2018-07-27T14:18:41.462Z,3.67
2018-07-27T14:21:09.728Z,3.70
2018-07-27T14:23:38.038Z,3.57
2018-07-27T14:26:06.305Z,3.60
2018-07-27T14:28:34.584Z,3.67
2018-07-27T14:31:02.879Z,3.60
2018-07-27T14:33:30.898Z,3.60
2018-07-27T14:35:59.226Z,3.50
2018-07-27T14:38:27.499Z,3.73
2018-07-27T14:40:55.810Z,3.60
2018-07-27T14:43:24.483Z,3.60
2018-07-27T14:45:52.779Z,3.93
2018-07-27T14:48:21.161Z,3.50
2018-07-27T14:50:49.435Z,3.57
2018-07-27T14:53:17.440Z,3.60
2018-07-27T14:55:45.732Z,3.43
2018-07-27T14:58:14.037Z,3.47
2018-07-27T15:00:42.326Z,4.10
2018-07-27T15:03:10.617Z,3.70
2018-07-27T15:05:38.941Z,3.60
2018-07-27T15:08:07.245Z,3.80
2018-07-27T15:10:35.550Z,3.50
2018-07-27T15:13:04.096Z,3.60
2018-07-27T15:15:32.633Z,3.60
2018-07-27T15:18:00.959Z,3.87
2018-07-27T15:20:29.223Z,3.53
2018-07-27T15:22:57.591Z,3.90
2018-07-27T15:25:25.915Z,3.90
2018-07-27T15:27:54.200Z,4.03
2018-07-27T15:30:22.496Z,3.87
2018-07-27T15:32:50.797Z,4.43
2018-07-27T15:35:19.183Z,4.00
2018-07-27T15:37:47.464Z,4.00
2018-07-27T15:40:15.866Z,3.80
2018-07-27T15:42:44.132Z,4.20
2018-07-27T15:45:12.422Z,4.20
2018-07-27T15:47:40.938Z,4.13
2018-07-27T15:50:09.228Z,4.30
2018-07-27T15:52:37.523Z,4.27
2018-07-27T15:55:06.038Z,4.13
2018-07-27T15:57:34.336Z,4.47
2018-07-27T16:00:02.621Z,4.43
2018-07-27T16:02:30.908Z,4.20
2018-07-27T16:04:59.215Z,3.43
2018-07-27T16:07:27.502Z,3.97
2018-07-27T16:09:55.776Z,4.17
2018-07-27T16:12:24.088Z,3.97
2018-07-27T16:14:52.374Z,4.20
2018-07-27T16:17:20.655Z,3.97
2018-07-27T16:19:48.676Z,4.00
2018-07-27T16:22:16.987Z,4.50
2018-07-27T16:24:45.265Z,4.40
2018-07-27T16:27:13.632Z,3.80
2018-07-27T16:29:41.948Z,4.13
2018-07-27T16:32:10.224Z,4.03
2018-07-27T16:34:38.499Z,4.00
2018-07-27T16:37:06.810Z,4.70
2018-07-27T16:39:34.825Z,4.20
2018-07-27T16:42:03.174Z,4.03
2018-07-27T16:44:31.488Z,4.10
2018-07-27T16:46:59.766Z,3.93
2018-07-27T16:49:28.154Z,4.13
2018-07-27T16:51:56.479Z,4.13
2018-07-27T16:54:24.756Z,3.97
2018-07-27T16:56:53.064Z,4.10
2018-07-27T16:59:21.328Z,3.90
2018-07-27T17:01:49.677Z,4.37
2018-07-27T17:04:18.003Z,4.40
2018-07-27T17:06:46.278Z,3.93
2018-07-27T17:09:14.669Z,4.30
2018-07-27T17:11:42.909Z,4.33
2018-07-27T17:14:11.192Z,4.33
2018-07-27T17:16:39.504Z,4.27
2018-07-27T17:19:07.906Z,4.30
2018-07-27T17:21:36.425Z,4.30
2018-07-27T17:24:04.691Z,4.50
2018-07-27T17:26:32.959Z,4.50
2018-07-27T17:29:01.225Z,4.40
2018-07-27T17:31:29.501Z,4.37
2018-07-27T17:33:57.794Z,4.20
2018-07-27T17:36:26.160Z,4.20
2018-07-27T17:38:54.454Z,4.13
2018-07-27T17:41:22.706Z,4.37
2018-07-27T17:43:50.984Z,4.10
2018-07-27T17:46:19.290Z,4.27
2018-07-27T17:48:47.564Z,4.27
2018-07-27T17:51:15.840Z,4.10
2018-07-27T17:53:44.170Z,4.70
2018-07-27T17:56:12.507Z,4.00
2018-07-27T17:58:40.777Z,4.07
2018-07-27T18:01:09.581Z,3.97
2018-07-27T18:03:37.916Z,3.87
2018-07-27T18:06:05.933Z,4.13
2018-07-27T18:08:34.205Z,4.00
2018-07-27T18:11:02.511Z,4.40
2018-07-27T18:13:30.885Z,3.93
2018-07-27T18:15:59.149Z,4.10
2018-07-27T18:18:27.416Z,4.30
2018-07-27T18:20:55.728Z,4.40
2018-07-27T18:23:24.053Z,4.07
2018-07-27T18:25:52.368Z,4.30
2018-07-27T18:28:20.656Z,3.93
2018-07-27T18:30:49.026Z,3.80
2018-07-27T18:33:17.389Z,3.97
2018-07-27T18:35:45.690Z,4.27
2018-07-27T18:38:14.021Z,4.13
2018-07-27T18:40:42.292Z,3.87
2018-07-27T18:43:10.621Z,4.30
2018-07-27T18:45:38.915Z,4.23
2018-07-27T18:48:07.201Z,4.20
2018-07-27T18:50:35.248Z,4.40
2018-07-27T18:53:03.558Z,4.00
2018-07-27T18:55:31.869Z,3.70
2018-07-27T18:58:00.143Z,4.00
2018-07-27T19:00:28.465Z,3.93
2018-07-27T19:02:56.756Z,3.93
2018-07-27T19:05:25.053Z,4.10
2018-07-27T19:07:53.360Z,4.37
2018-07-27T19:10:21.685Z,4.23
2018-07-27T19:12:50.004Z,4.37
2018-07-27T19:15:18.298Z,4.37
2018-07-27T19:17:46.577Z,4.17
2018-07-27T19:20:14.872Z,4.40
2018-07-27T19:22:43.146Z,4.73
2018-07-27T19:25:11.445Z,4.40
2018-07-27T19:27:39.775Z,4.20
2018-07-27T19:30:09.714Z,4.20
2018-07-27T19:32:38.005Z,4.30
2018-07-27T19:35:06.304Z,4.33
2018-07-27T19:37:34.323Z,4.07
2018-07-27T19:40:02.629Z,4.23
2018-07-27T19:42:30.987Z,4.30
2018-07-27T19:44:59.313Z,4.30
2018-07-27T19:47:27.616Z,4.13
2018-07-27T19:49:55.655Z,4.40
2018-07-27T19:52:24.020Z,4.40
2018-07-27T19:54:52.563Z,4.60
2018-07-27T19:57:20.557Z,4.20
2018-07-27T19:59:48.836Z,4.40
2018-07-27T20:02:17.158Z,4.80
2018-07-27T20:04:45.424Z,4.73
2018-07-27T20:07:13.719Z,4.77
2018-07-27T20:09:42.009Z,4.57
2018-07-27T20:12:10.302Z,4.87
2018-07-27T20:14:38.673Z,4.77
2018-07-27T20:17:07.025Z,5.00
2018-07-27T20:19:35.311Z,4.50
2018-07-27T20:22:03.616Z,4.63
2018-07-27T20:24:31.890Z,4.30
2018-07-27T20:27:00.163Z,5.00
2018-07-27T20:29:28.449Z,5.33
2018-07-27T20:31:56.709Z,5.27
2018-07-27T20:34:25.017Z,5.00
2018-07-27T20:36:53.311Z,5.30
2018-07-27T20:39:21.635Z,4.63
2018-07-27T20:41:49.901Z,5.10
2018-07-27T20:44:18.215Z,5.03
2018-07-27T20:46:46.735Z,5.27
2018-07-27T20:49:15.030Z,5.20
2018-07-27T20:51:43.351Z,5.10
2018-07-27T20:54:11.657Z,5.20
2018-07-27T20:56:40.134Z,4.77
2018-07-27T20:59:08.148Z,5.27
2018-07-27T21:01:36.440Z,4.73
2018-07-27T21:04:04.745Z,4.77
2018-07-27T21:06:32.983Z,5.30
2018-07-27T21:09:01.459Z,4.80
2018-07-27T21:11:29.757Z,5.07
2018-07-27T21:13:58.063Z,5.03
2018-07-27T21:16:26.339Z,5.00
2018-07-27T21:18:55.628Z,4.83
2018-07-27T21:21:24.076Z,5.37
2018-07-27T21:23:52.368Z,4.87
2018-07-27T21:26:20.641Z,5.03
2018-07-27T21:28:48.931Z,5.27
2018-07-27T21:31:16.954Z,5.23
2018-07-27T21:33:45.246Z,5.00
2018-07-27T21:36:13.539Z,5.23
2018-07-27T21:38:41.908Z,4.80
2018-07-27T21:41:10.156Z,5.00
2018-07-27T21:43:38.444Z,5.67
2018-07-27T21:46:06.769Z,5.23
2018-07-27T21:48:35.008Z,4.80
2018-07-27T21:51:03.268Z,4.93
2018-07-27T21:53:31.271Z,5.00
2018-07-27T21:55:59.593Z,5.07
2018-07-27T21:58:27.883Z,5.23
2018-07-27T22:00:56.159Z,5.03
2018-07-27T22:03:24.528Z,5.03
2018-07-27T22:05:52.801Z,5.17
2018-07-27T22:08:21.135Z,4.97
2018-07-27T22:10:49.469Z,5.00
2018-07-27T22:13:17.774Z,4.83
2018-07-27T22:15:46.042Z,4.83
2018-07-27T22:18:14.326Z,4.73
2018-07-27T22:20:42.660Z,4.97
2018-07-27T22:23:10.931Z,4.80
2018-07-27T22:25:39.209Z,4.70
2018-07-27T22:28:07.480Z,4.77
2018-07-27T22:30:35.745Z,5.03
2018-07-27T22:33:04.075Z,4.73
2018-07-27T22:35:32.361Z,4.73
2018-07-27T22:38:00.670Z,4.60
2018-07-27T22:40:29.039Z,4.57
2018-07-27T22:42:57.255Z,4.67
2018-07-27T22:45:25.544Z,4.80
2018-07-27T22:47:53.833Z,4.90
2018-07-27T22:50:22.125Z,4.70
2018-07-27T22:52:50.414Z,4.93
2018-07-27T22:55:18.696Z,4.87
2018-07-27T22:57:46.982Z,5.37
2018-07-27T23:00:15.848Z,4.70
2018-07-27T23:02:44.463Z,4.93
2018-07-27T23:05:13.246Z,5.10
2018-07-27T23:07:41.535Z,5.17
2018-07-27T23:10:10.718Z,5.40
2018-07-27T23:12:39.324Z,5.47
2018-07-27T23:15:09.122Z,5.63
2018-07-27T23:17:37.272Z,5.17
2018-07-27T23:20:08.180Z,5.30
2018-07-27T23:22:36.452Z,5.37
2018-07-27T23:25:05.365Z,5.40
2018-07-27T23:27:33.908Z,5.50
2018-07-27T23:30:02.184Z,5.37
2018-07-27T23:32:30.464Z,5.50
2018-07-27T23:34:58.492Z,5.70
2018-07-27T23:37:26.804Z,5.50
2018-07-27T23:39:55.072Z,5.27
2018-07-27T23:42:23.349Z,5.67
2018-07-27T23:44:51.678Z,5.73
2018-07-27T23:47:19.953Z,5.90
2018-07-27T23:49:48.241Z,5.80
2018-07-27T23:52:16.616Z,6.00
2018-07-27T23:54:44.984Z,5.90
2018-07-27T23:57:13.265Z,5.63
2018-07-27T23:59:41.531Z,5.80
